Time;durP1;ratioP1;P1;durP2;ratioP2;P2;SDS_P1;SDS_P2;PMS_P1;PMS_P2;Temp;Humidity;BMP_temperature;BMP_pressure;BME280_temperature;BME280_humidity;BME280_pressure;Samples;Min_cycle;Max_cycle;Signal;HPM_P1;HPM_P2
2021/01/30 00:00:21;;;;;;;23.98;11.80;;;;;;;;;;4985149;28;20093;-49
2021/01/30 00:02:47;;;;;;;21.05;10.57;;;;;;;;;;4987998;28;20037;-50
2021/01/30 00:05:13;;;;;;;23.23;11.45;;;;;;;;;;4988287;28;20049;-48
2021/01/30 00:07:39;;;;;;;19.30;9.75;;;;;;;;;;4989276;28;20034;-52
2021/01/30 00:10:06;;;;;;;21.10;10.02;;;;;;;;;;4987735;28;20088;-51
2021/01/30 00:12:33;;;;;;;19.08;10.07;;;;;;;;;;4987558;28;20065;-49
2021/01/30 00:14:59;;;;;;;21.73;11.27;;;;;;;;;;4985024;28;20030;-51
2021/01/30 00:17:24;;;;;;;24.50;10.75;;;;;;;;;;4987539;28;20034;-51
2021/01/30 00:19:50;;;;;;;20.80;9.10;;;;;;;;;;4987354;28;20034;-52
2021/01/30 00:22:18;;;;;;;20.20;10.00;;;;;;;;;;4987905;28;20041;-51
2021/01/30 00:24:46;;;;;;;22.55;11.18;;;;;;;;;;4987944;28;20048;-50
2021/01/30 00:27:13;;;;;;;25.08;10.02;;;;;;;;;;4985643;28;20121;-51
2021/01/30 00:29:39;;;;;;;18.77;10.32;;;;;;;;;;4985257;28;20061;-48
2021/01/30 00:32:06;;;;;;;23.70;10.70;;;;;;;;;;4987531;28;20144;-49
2021/01/30 00:34:32;;;;;;;24.90;10.93;;;;;;;;;;4987043;28;20033;-50
2021/01/30 00:37:02;;;;;;;21.38;10.50;;;;;;;;;;4986569;28;20040;-49
2021/01/30 00:39:28;;;;;;;21.40;11.45;;;;;;;;;;4987035;28;20117;-51
2021/01/30 00:41:54;;;;;;;19.42;10.10;;;;;;;;;;4987346;28;20021;-48
2021/01/30 00:44:20;;;;;;;22.13;11.13;;;;;;;;;;4986481;28;20045;-52
2021/01/30 00:46:50;;;;;;;20.85;11.20;;;;;;;;;;4986956;28;20034;-54
2021/01/30 00:49:16;;;;;;;17.50;9.50;;;;;;;;;;4987072;28;20038;-54
2021/01/30 00:51:42;;;;;;;21.42;10.00;;;;;;;;;;4987188;28;20030;-48
2021/01/30 00:54:09;;;;;;;21.98;10.15;;;;;;;;;;4995596;28;20034;-50
2021/01/30 00:56:35;;;;;;;18.70;9.98;;;;;;;;;;4982115;28;20076;-49
2021/01/30 00:59:00;;;;;;;22.70;10.98;;;;;;;;;;4973683;28;20661;-52
2021/01/30 01:01:26;;;;;;;20.10;10.45;;;;;;;;;;4987771;28;20026;-55
2021/01/30 01:03:52;;;;;;;22.80;11.15;;;;;;;;;;4986791;28;20075;-50
2021/01/30 01:06:18;;;;;;;19.20;10.55;;;;;;;;;;4987100;28;20076;-53
2021/01/30 01:08:44;;;;;;;21.75;10.50;;;;;;;;;;4986752;28;20391;-51
2021/01/30 01:11:10;;;;;;;25.02;11.57;;;;;;;;;;4986960;28;20731;-49
2021/01/30 01:13:36;;;;;;;22.73;10.90;;;;;;;;;;4986848;28;20526;-48
2021/01/30 01:16:02;;;;;;;20.92;10.57;;;;;;;;;;4985993;28;20056;-51
2021/01/30 01:18:28;;;;;;;20.90;10.57;;;;;;;;;;4986474;28;20038;-51
2021/01/30 01:20:54;;;;;;;27.27;10.80;;;;;;;;;;4986655;28;20425;-52
2021/01/30 01:23:20;;;;;;;22.02;10.63;;;;;;;;;;4986617;28;20054;-50
2021/01/30 01:25:46;;;;;;;19.25;10.00;;;;;;;;;;4983226;28;20430;-49
2021/01/30 01:28:12;;;;;;;18.63;9.95;;;;;;;;;;4978693;28;20074;-50
2021/01/30 01:30:38;;;;;;;18.65;8.82;;;;;;;;;;4985537;28;20037;-49
2021/01/30 01:33:04;;;;;;;16.05;8.77;;;;;;;;;;4983113;28;20022;-51
2021/01/30 01:35:31;;;;;;;17.05;8.35;;;;;;;;;;4984816;28;20498;-51
2021/01/30 01:37:58;;;;;;;15.23;6.85;;;;;;;;;;4984901;28;20073;-52
2021/01/30 01:40:26;;;;;;;15.13;7.93;;;;;;;;;;4985467;28;20051;-55
2021/01/30 01:42:59;;;;;;;13.60;6.82;;;;;;;;;;4985129;28;20030;-52
2021/01/30 01:45:25;;;;;;;9.18;5.70;;;;;;;;;;4988490;28;20117;-49
2021/01/30 01:47:52;;;;;;;11.27;5.32;;;;;;;;;;4983664;28;20121;-48
2021/01/30 01:50:38;;;;;;;12.68;6.65;;;;;;;;;;4990226;28;20130;-48
2021/01/30 01:53:34;;;;;;;11.68;6.60;;;;;;;;;;4991342;28;20030;-51
2021/01/30 01:56:02;;;;;;;12.75;6.82;;;;;;;;;;4968579;28;20038;-47
2021/01/30 01:58:31;;;;;;;11.88;6.22;;;;;;;;;;4971182;28;20877;-48
2021/01/30 02:00:57;;;;;;;15.18;7.10;;;;;;;;;;4989980;28;20046;-48
2021/01/30 02:03:23;;;;;;;12.88;6.50;;;;;;;;;;4986866;28;20492;-47
2021/01/30 02:05:49;;;;;;;16.73;8.07;;;;;;;;;;4988176;28;20501;-48
2021/01/30 02:08:18;;;;;;;13.50;7.45;;;;;;;;;;4989497;28;20034;-53
2021/01/30 02:10:45;;;;;;;13.77;7.82;;;;;;;;;;4988532;28;20354;-50
2021/01/30 02:13:14;;;;;;;16.50;7.18;;;;;;;;;;4988843;28;20429;-51
2021/01/30 02:15:42;;;;;;;13.82;7.82;;;;;;;;;;4989365;28;20025;-54
2021/01/30 02:18:18;;;;;;;19.10;8.25;;;;;;;;;;4986803;28;20040;-48
2021/01/30 02:20:44;;;;;;;15.30;7.60;;;;;;;;;;4990157;28;20034;-48
2021/01/30 02:23:29;;;;;;;14.65;7.57;;;;;;;;;;4989004;28;20029;-50
2021/01/30 02:26:07;;;;;;;11.32;7.38;;;;;;;;;;4989285;28;20052;-52
2021/01/30 02:28:42;;;;;;;17.15;6.90;;;;;;;;;;4976905;28;20065;-52
2021/01/30 02:31:18;;;;;;;15.73;7.43;;;;;;;;;;4990013;28;20053;-48
2021/01/30 02:34:03;;;;;;;14.63;7.63;;;;;;;;;;4989622;28;20022;-49
2021/01/30 02:36:48;;;;;;;16.65;7.70;;;;;;;;;;4988026;28;20037;-50
2021/01/30 02:39:17;;;;;;;15.77;7.28;;;;;;;;;;4984164;28;20883;-50
2021/01/30 02:41:47;;;;;;;11.38;6.30;;;;;;;;;;4989972;28;20086;-50
2021/01/30 02:44:15;;;;;;;12.88;6.93;;;;;;;;;;4988249;28;20034;-51
2021/01/30 02:46:46;;;;;;;14.00;7.15;;;;;;;;;;4989155;28;20098;-51
2021/01/30 02:49:15;;;;;;;12.95;7.13;;;;;;;;;;4989264;28;20509;-49
2021/01/30 02:51:43;;;;;;;11.07;6.80;;;;;;;;;;4989199;28;20023;-50
2021/01/30 02:54:09;;;;;;;15.32;7.05;;;;;;;;;;4995203;28;20390;-48
2021/01/30 02:56:35;;;;;;;11.38;6.93;;;;;;;;;;4981376;28;20031;-51
2021/01/30 02:59:10;;;;;;;13.10;7.53;;;;;;;;;;4983517;28;20031;-53
2021/01/30 03:01:37;;;;;;;12.38;7.32;;;;;;;;;;4988879;28;20091;-52
2021/01/30 03:04:05;;;;;;;12.30;6.57;;;;;;;;;;4989223;28;20035;-48
2021/01/30 03:06:40;;;;;;;14.98;7.35;;;;;;;;;;4988258;28;20045;-51
2021/01/30 03:09:12;;;;;;;15.48;7.35;;;;;;;;;;4977658;28;20038;-50
2021/01/30 03:11:42;;;;;;;16.60;7.63;;;;;;;;;;4988162;28;20035;-48
2021/01/30 03:14:16;;;;;;;13.15;6.95;;;;;;;;;;4988480;28;20414;-51
2021/01/30 03:16:42;;;;;;;10.93;6.88;;;;;;;;;;4988873;28;20026;-48
2021/01/30 03:19:12;;;;;;;14.20;7.57;;;;;;;;;;4988313;28;20453;-53
2021/01/30 03:21:39;;;;;;;13.13;6.97;;;;;;;;;;4988562;28;20038;-51
2021/01/30 03:24:05;;;;;;;13.00;6.85;;;;;;;;;;4988504;28;20038;-50
2021/01/30 03:26:32;;;;;;;18.48;7.45;;;;;;;;;;4988099;28;20638;-51
2021/01/30 03:28:58;;;;;;;13.40;7.05;;;;;;;;;;4987292;28;20050;-51
2021/01/30 03:31:24;;;;;;;14.82;7.28;;;;;;;;;;4988495;28;20026;-51
2021/01/30 03:33:51;;;;;;;12.02;6.70;;;;;;;;;;4986027;28;20030;-49
2021/01/30 03:36:17;;;;;;;11.75;6.35;;;;;;;;;;4988735;28;20033;-52
2021/01/30 03:38:43;;;;;;;13.77;7.35;;;;;;;;;;4980705;28;20473;-51
2021/01/30 03:41:09;;;;;;;14.23;7.32;;;;;;;;;;4987452;28;20049;-51
2021/01/30 03:43:35;;;;;;;15.18;7.78;;;;;;;;;;4987184;28;20034;-48
2021/01/30 03:46:01;;;;;;;17.13;7.60;;;;;;;;;;4988190;28;20080;-49
2021/01/30 03:48:27;;;;;;;15.25;7.68;;;;;;;;;;4988345;28;20039;-48
2021/01/30 03:50:53;;;;;;;14.23;7.60;;;;;;;;;;4987512;28;20548;-49
2021/01/30 03:53:19;;;;;;;13.20;7.47;;;;;;;;;;4990936;28;20458;-50
2021/01/30 03:55:45;;;;;;;15.02;8.25;;;;;;;;;;4989817;28;20031;-47
2021/01/30 03:58:11;;;;;;;14.18;7.40;;;;;;;;;;4981469;28;20038;-50
2021/01/30 04:00:37;;;;;;;16.80;8.40;;;;;;;;;;4987336;28;20048;-50
2021/01/30 04:03:03;;;;;;;16.65;8.38;;;;;;;;;;4987931;28;20044;-49
2021/01/30 04:05:29;;;;;;;13.32;7.75;;;;;;;;;;4987791;28;20045;-51
2021/01/30 04:07:56;;;;;;;14.70;8.63;;;;;;;;;;4987923;28;20038;-48
2021/01/30 04:10:30;;;;;;;14.25;8.40;;;;;;;;;;4987420;28;20022;-48
2021/01/30 04:12:57;;;;;;;15.20;8.70;;;;;;;;;;4987589;28;20034;-49
2021/01/30 04:15:24;;;;;;;18.80;8.70;;;;;;;;;;4986985;28;20061;-54
2021/01/30 04:17:50;;;;;;;15.73;8.55;;;;;;;;;;4987550;28;20049;-47
2021/01/30 04:20:17;;;;;;;14.95;8.23;;;;;;;;;;4987692;28;20026;-50
2021/01/30 04:22:43;;;;;;;17.27;8.20;;;;;;;;;;4987111;28;20041;-53
2021/01/30 04:25:10;;;;;;;13.45;8.23;;;;;;;;;;4986842;28;20204;-50
2021/01/30 04:27:36;;;;;;;12.43;8.32;;;;;;;;;;4987922;28;20031;-52
2021/01/30 04:30:04;;;;;;;17.63;9.05;;;;;;;;;;4986937;28;20042;-51
2021/01/30 04:32:30;;;;;;;14.57;8.05;;;;;;;;;;4987202;28;20038;-54
2021/01/30 04:34:56;;;;;;;14.70;9.00;;;;;;;;;;4985804;28;20558;-50
2021/01/30 04:37:22;;;;;;;16.48;8.60;;;;;;;;;;4987245;28;20053;-53
2021/01/30 04:39:48;;;;;;;15.68;7.72;;;;;;;;;;4987204;28;20026;-53
2021/01/30 04:42:19;;;;;;;14.65;8.35;;;;;;;;;;4978682;28;20038;-51
2021/01/30 04:44:45;;;;;;;14.40;8.45;;;;;;;;;;4986399;28;20042;-52
2021/01/30 04:47:29;;;;;;;17.05;9.27;;;;;;;;;;4986174;28;20080;-48
2021/01/30 04:50:10;;;;;;;14.63;8.07;;;;;;;;;;4976963;28;20026;-48
2021/01/30 04:53:05;;;;;;;15.55;8.85;;;;;;;;;;4986803;28;20027;-50
2021/01/30 04:55:45;;;;;;;15.65;8.48;;;;;;;;;;4929739;28;20035;-47
2021/01/30 04:58:34;;;;;;;15.63;8.60;;;;;;;;;;4982864;28;20029;-51
2021/01/30 05:01:10;;;;;;;14.93;8.40;;;;;;;;;;4976040;28;20069;-51
2021/01/30 05:03:55;;;;;;;17.00;9.00;;;;;;;;;;4987497;28;20033;-51
2021/01/30 05:06:23;;;;;;;19.88;9.48;;;;;;;;;;4987414;28;20462;-52
2021/01/30 05:08:59;;;;;;;17.27;8.85;;;;;;;;;;4986827;28;20104;-50
2021/01/30 05:11:27;;;;;;;18.80;8.57;;;;;;;;;;4984745;28;20873;-50
2021/01/30 05:13:56;;;;;;;19.67;9.63;;;;;;;;;;4986963;28;20033;-49
2021/01/30 05:16:32;;;;;;;17.27;9.88;;;;;;;;;;4987133;28;20048;-51
2021/01/30 05:19:01;;;;;;;16.80;9.43;;;;;;;;;;4986459;28;20120;-49
2021/01/30 05:21:44;;;;;;;20.58;10.07;;;;;;;;;;4991012;28;20027;-48
2021/01/30 05:24:11;;;;;;;18.13;9.00;;;;;;;;;;4990790;28;20076;-48
2021/01/30 05:26:42;;;;;;;17.98;9.70;;;;;;;;;;4990116;28;20402;-48
2021/01/30 05:29:13;;;;;;;16.25;8.73;;;;;;;;;;4989955;28;20184;-48
2021/01/30 05:31:57;;;;;;;18.52;9.80;;;;;;;;;;4990745;28;20139;-53
2021/01/30 05:34:26;;;;;;;20.08;9.88;;;;;;;;;;4989034;28;20049;-52
2021/01/30 05:36:56;;;;;;;21.17;9.82;;;;;;;;;;4990599;28;20035;-49
2021/01/30 05:39:45;;;;;;;17.20;9.57;;;;;;;;;;4990307;28;20046;-51
2021/01/30 05:42:21;;;;;;;22.70;10.50;;;;;;;;;;4982142;28;20030;-50
2021/01/30 05:44:57;;;;;;;23.67;11.10;;;;;;;;;;4990338;28;20056;-48
2021/01/30 05:47:26;;;;;;;21.83;11.30;;;;;;;;;;4990558;28;20030;-48
2021/01/30 05:50:11;;;;;;;18.90;10.63;;;;;;;;;;4990580;28;20031;-50
2021/01/30 05:52:38;;;;;;;21.88;9.18;;;;;;;;;;4990290;28;20029;-53
2021/01/30 05:55:21;;;;;;;21.92;10.35;;;;;;;;;;4997313;28;20462;-54
2021/01/30 05:57:47;;;;;;;23.27;10.57;;;;;;;;;;4980674;28;20050;-49
2021/01/30 06:00:17;;;;;;;21.38;10.90;;;;;;;;;;4989649;28;20034;-52
2021/01/30 06:02:59;;;;;;;22.90;11.00;;;;;;;;;;4985821;28;20030;-48
2021/01/30 06:05:30;;;;;;;21.38;12.20;;;;;;;;;;4987930;28;20034;-48
2021/01/30 06:07:56;;;;;;;24.95;11.63;;;;;;;;;;4989483;28;20077;-50
2021/01/30 06:10:28;;;;;;;23.67;11.45;;;;;;;;;;4987571;28;20034;-53
2021/01/30 06:13:05;;;;;;;23.27;11.63;;;;;;;;;;4990079;28;20065;-47
2021/01/30 06:15:34;;;;;;;25.73;11.25;;;;;;;;;;4977024;28;20022;-47
2021/01/30 06:18:14;;;;;;;22.42;11.23;;;;;;;;;;4990125;28;20034;-53
2021/01/30 06:20:40;;;;;;;17.17;10.13;;;;;;;;;;4989310;28;20054;-50
2021/01/30 06:23:07;;;;;;;24.15;11.60;;;;;;;;;;4990063;28;20081;-54
2021/01/30 06:25:35;;;;;;;22.08;12.07;;;;;;;;;;4989613;28;20022;-51
2021/01/30 06:28:03;;;;;;;25.75;11.10;;;;;;;;;;4989375;28;20033;-48
2021/01/30 06:30:32;;;;;;;20.75;11.02;;;;;;;;;;4988821;28;20101;-51
2021/01/30 06:33:03;;;;;;;25.42;11.75;;;;;;;;;;4989183;28;20629;-52
2021/01/30 06:35:32;;;;;;;24.77;12.15;;;;;;;;;;4990012;28;20033;-50
2021/01/30 06:38:01;;;;;;;24.13;11.73;;;;;;;;;;4989459;28;20019;-50
2021/01/30 06:40:34;;;;;;;23.67;11.05;;;;;;;;;;4988739;28;20030;-49
2021/01/30 06:43:09;;;;;;;23.02;12.05;;;;;;;;;;4989377;28;20032;-54
2021/01/30 06:45:40;;;;;;;24.58;11.98;;;;;;;;;;4979498;28;20035;-52
2021/01/30 06:48:09;;;;;;;23.95;11.85;;;;;;;;;;4989134;28;20434;-51
2021/01/30 06:50:39;;;;;;;22.65;11.52;;;;;;;;;;4981353;28;20093;-52
2021/01/30 06:53:12;;;;;;;24.58;11.25;;;;;;;;;;4990130;28;20372;-48
2021/01/30 06:55:38;;;;;;;22.33;11.30;;;;;;;;;;4989647;28;20161;-50
2021/01/30 06:58:05;;;;;;;25.95;11.02;;;;;;;;;;4970972;28;20535;-53
2021/01/30 07:00:32;;;;;;;28.42;12.00;;;;;;;;;;4981757;28;20395;-50
2021/01/30 07:03:08;;;;;;;23.90;11.90;;;;;;;;;;4979260;28;20105;-53
2021/01/30 07:05:37;;;;;;;24.75;11.75;;;;;;;;;;4988883;28;20513;-55
2021/01/30 07:08:23;;;;;;;27.77;11.50;;;;;;;;;;4981909;28;20023;-51
2021/01/30 07:10:52;;;;;;;24.55;11.43;;;;;;;;;;4980813;28;20602;-51
2021/01/30 07:13:28;;;;;;;22.83;10.95;;;;;;;;;;4988569;28;20137;-53
2021/01/30 07:16:08;;;;;;;22.15;11.13;;;;;;;;;;4978740;28;20121;-50
2021/01/30 07:18:40;;;;;;;20.10;11.13;;;;;;;;;;4989098;28;20044;-52
2021/01/30 07:21:16;;;;;;;23.55;10.93;;;;;;;;;;4984729;28;20034;-54
2021/01/30 07:23:43;;;;;;;20.52;10.55;;;;;;;;;;4977209;28;20030;-54
2021/01/30 07:26:12;;;;;;;23.13;10.95;;;;;;;;;;4981613;28;20034;-50
2021/01/30 07:28:41;;;;;;;15.85;8.30;;;;;;;;;;4988078;28;20049;-53
2021/01/30 07:31:10;;;;;;;18.08;8.82;;;;;;;;;;4978847;28;20034;-55
2021/01/30 07:33:48;;;;;;;17.65;8.05;;;;;;;;;;4988635;28;20814;-47
2021/01/30 07:36:20;;;;;;;15.73;7.88;;;;;;;;;;4984819;28;20393;-52
2021/01/30 07:38:52;;;;;;;15.80;8.38;;;;;;;;;;4987613;28;20086;-50
2021/01/30 07:41:29;;;;;;;14.40;7.47;;;;;;;;;;4986078;28;20038;-55
2021/01/30 07:44:01;;;;;;;17.23;8.45;;;;;;;;;;4981167;28;20026;-52
2021/01/30 07:46:31;;;;;;;15.15;7.65;;;;;;;;;;4976414;28;20038;-50
2021/01/30 07:48:59;;;;;;;12.82;6.85;;;;;;;;;;4985675;28;20038;-50
2021/01/30 07:51:27;;;;;;;10.48;6.80;;;;;;;;;;4986610;28;20126;-50
2021/01/30 07:53:53;;;;;;;13.82;7.68;;;;;;;;;;4987417;28;20031;-48
2021/01/30 07:56:19;;;;;;;12.05;6.90;;;;;;;;;;4983908;28;20053;-50
2021/01/30 07:59:03;;;;;;;12.77;6.15;;;;;;;;;;4971753;28;20545;-48
2021/01/30 08:01:48;;;;;;;11.77;7.18;;;;;;;;;;4984072;28;20037;-50
2021/01/30 08:04:27;;;;;;;13.05;7.43;;;;;;;;;;4981983;28;20046;-49
2021/01/30 08:07:00;;;;;;;11.43;7.00;;;;;;;;;;4983809;28;20096;-52
2021/01/30 08:09:38;;;;;;;12.30;6.43;;;;;;;;;;4985792;28;20035;-53
2021/01/30 08:12:19;;;;;;;9.63;6.28;;;;;;;;;;4986519;28;20034;-49
2021/01/30 08:14:49;;;;;;;13.50;6.85;;;;;;;;;;4986392;28;20125;-50
2021/01/30 08:17:34;;;;;;;9.23;6.53;;;;;;;;;;4984945;28;20034;-53
2021/01/30 08:20:07;;;;;;;11.05;6.13;;;;;;;;;;4987032;28;20095;-53
2021/01/30 08:22:33;;;;;;;;;;;;;;;;;;4987535;28;20038;-53
2021/01/30 08:25:21;;;;;;;12.70;6.45;;;;;;;;;;4986796;28;19992;-50
2021/01/30 08:27:54;;;;;;;13.32;7.03;;;;;;;;;;4977191;28;20038;-52
2021/01/30 08:30:21;;;;;;;12.88;7.00;;;;;;;;;;4986938;28;20062;-53
2021/01/30 08:32:59;;;;;;;10.90;7.07;;;;;;;;;;4987778;28;20081;-50
2021/01/30 08:35:25;;;;;;;12.65;7.20;;;;;;;;;;4986510;28;20125;-51
2021/01/30 08:38:10;;;;;;;11.90;6.97;;;;;;;;;;4987730;28;20165;-49
2021/01/30 08:40:46;;;;;;;11.55;6.15;;;;;;;;;;4983897;28;20084;-54
2021/01/30 08:43:30;;;;;;;10.80;6.45;;;;;;;;;;4983864;28;20505;-50
2021/01/30 08:46:15;;;;;;;12.60;6.57;;;;;;;;;;4981949;28;20170;-50
2021/01/30 08:48:41;;;;;;;11.60;6.10;;;;;;;;;;4986046;28;20060;-52
2021/01/30 08:51:17;;;;;;;10.15;6.30;;;;;;;;;;4987200;28;20472;-52
2021/01/30 08:53:43;;;;;;;12.13;6.57;;;;;;;;;;4982135;28;20030;-50
2021/01/30 08:56:09;;;;;;;13.85;6.68;;;;;;;;;;4985834;28;20036;-49
2021/01/30 08:58:35;;;;;;;10.32;6.93;;;;;;;;;;4985193;28;20038;-52
2021/01/30 09:01:09;;;;;;;12.32;6.40;;;;;;;;;;4986338;28;20093;-50
2021/01/30 09:03:36;;;;;;;9.70;6.30;;;;;;;;;;4987091;28;20038;-52
2021/01/30 09:06:03;;;;;;;12.77;6.57;;;;;;;;;;4974003;28;20054;-51
2021/01/30 09:08:37;;;;;;;12.70;7.05;;;;;;;;;;4986657;28;20036;-49
2021/01/30 09:11:18;;;;;;;12.38;7.10;;;;;;;;;;4985976;28;20088;-54
2021/01/30 09:14:00;;;;;;;10.00;6.22;;;;;;;;;;4986185;28;20030;-54
2021/01/30 09:16:31;;;;;;;10.98;6.43;;;;;;;;;;4978434;28;20117;-54
2021/01/30 09:18:59;;;;;;;12.55;6.80;;;;;;;;;;4980151;28;20042;-53
2021/01/30 09:21:31;;;;;;;13.43;7.43;;;;;;;;;;4981976;28;20030;-53
2021/01/30 09:24:20;;;;;;;12.38;7.45;;;;;;;;;;4982990;28;20114;-51
2021/01/30 09:27:10;;;;;;;12.00;6.88;;;;;;;;;;4982761;28;20442;-54
2021/01/30 09:29:38;;;;;;;14.70;7.47;;;;;;;;;;4982527;28;20100;-54
2021/01/30 09:32:04;;;;;;;11.43;7.05;;;;;;;;;;4986566;28;20030;-52
2021/01/30 09:34:38;;;;;;;13.02;7.50;;;;;;;;;;4987046;28;20033;-53
2021/01/30 09:37:06;;;;;;;13.35;7.90;;;;;;;;;;4983583;28;20018;-55
2021/01/30 09:39:34;;;;;;;14.13;7.88;;;;;;;;;;4985470;28;20630;-52
2021/01/30 09:42:17;;;;;;;14.55;7.50;;;;;;;;;;4996685;28;20092;-54
2021/01/30 09:44:43;;;;;;;15.65;8.52;;;;;;;;;;4985852;28;20038;-50
2021/01/30 09:47:17;;;;;;;12.85;7.72;;;;;;;;;;4986381;28;20022;-56
2021/01/30 09:49:45;;;;;;;10.73;6.60;;;;;;;;;;4985943;28;20030;-53
2021/01/30 09:52:14;;;;;;;12.75;7.65;;;;;;;;;;4985500;28;20121;-52
2021/01/30 09:54:40;;;;;;;11.77;6.63;;;;;;;;;;4994154;28;20056;-50
2021/01/30 09:57:15;;;;;;;13.68;7.40;;;;;;;;;;4989400;28;20463;-55
2021/01/30 09:59:41;;;;;;;11.82;6.97;;;;;;;;;;4987283;28;20041;-51
2021/01/30 10:02:10;;;;;;;13.50;7.43;;;;;;;;;;4984914;28;20026;-53
2021/01/30 10:04:36;;;;;;;12.52;6.95;;;;;;;;;;4984669;28;20054;-55
2021/01/30 10:07:06;;;;;;;12.48;7.50;;;;;;;;;;4992037;28;20138;-50
2021/01/30 10:09:37;;;;;;;13.18;7.70;;;;;;;;;;4991130;28;20041;-50
2021/01/30 10:12:03;;;;;;;11.75;6.68;;;;;;;;;;4986514;28;20593;-52
2021/01/30 10:14:37;;;;;;;10.60;6.05;;;;;;;;;;4983235;28;20091;-53
2021/01/30 10:17:04;;;;;;;10.88;6.63;;;;;;;;;;4983115;28;20030;-53
2021/01/30 10:19:31;;;;;;;11.20;6.43;;;;;;;;;;4989133;28;20065;-52
2021/01/30 10:21:58;;;;;;;10.23;6.43;;;;;;;;;;4986773;28;20044;-54
2021/01/30 10:24:25;;;;;;;12.05;7.82;;;;;;;;;;4988593;28;20490;-54
2021/01/30 10:26:52;;;;;;;10.32;6.90;;;;;;;;;;4989455;28;20129;-56
2021/01/30 10:29:20;;;;;;;11.30;7.43;;;;;;;;;;4988170;28;20050;-51
2021/01/30 10:31:52;;;;;;;11.57;6.57;;;;;;;;;;4985983;28;20031;-54
2021/01/30 10:34:26;;;;;;;12.35;6.20;;;;;;;;;;4989276;28;20058;-54
2021/01/30 10:36:55;;;;;;;9.98;5.88;;;;;;;;;;4987760;28;20062;-53
2021/01/30 10:39:22;;;;;;;12.70;7.03;;;;;;;;;;4989657;28;20058;-53
2021/01/30 10:41:49;;;;;;;12.45;6.28;;;;;;;;;;4988478;28;20033;-54
2021/01/30 10:44:20;;;;;;;9.63;6.45;;;;;;;;;;4988516;28;20038;-52
2021/01/30 10:46:46;;;;;;;11.63;6.30;;;;;;;;;;4985397;28;20038;-53
2021/01/30 10:49:21;;;;;;;9.30;6.00;;;;;;;;;;4987960;28;20054;-54
2021/01/30 10:51:48;;;;;;;10.43;6.00;;;;;;;;;;4984187;28;20096;-55
2021/01/30 10:54:28;;;;;;;8.10;5.65;;;;;;;;;;4987387;28;20486;-53
2021/01/30 10:57:00;;;;;;;12.75;5.68;;;;;;;;;;4982096;28;20042;-51
2021/01/30 10:59:26;;;;;;;9.63;5.55;;;;;;;;;;4986159;28;20034;-49
2021/01/30 11:01:52;;;;;;;7.60;5.20;;;;;;;;;;4987059;28;20611;-53
2021/01/30 11:04:28;;;;;;;9.93;4.53;;;;;;;;;;4987068;28;20041;-57
2021/01/30 11:06:59;;;;;;;9.60;5.30;;;;;;;;;;4984091;28;20084;-54
2021/01/30 11:09:27;;;;;;;8.52;4.95;;;;;;;;;;4987428;28;20072;-52
2021/01/30 11:12:07;;;;;;;7.22;4.85;;;;;;;;;;4988102;28;20065;-52
2021/01/30 11:14:34;;;;;;;8.13;5.00;;;;;;;;;;4988259;28;20049;-50
2021/01/30 11:17:01;;;;;;;7.72;4.22;;;;;;;;;;4987398;28;20434;-49
2021/01/30 11:19:38;;;;;;;11.23;4.78;;;;;;;;;;4987807;28;20034;-55
2021/01/30 11:22:10;;;;;;;7.47;4.75;;;;;;;;;;4986471;28;20065;-52
2021/01/30 11:24:47;;;;;;;7.50;4.47;;;;;;;;;;4987853;28;20038;-54
2021/01/30 11:27:31;;;;;;;9.20;4.88;;;;;;;;;;4987625;28;20031;-54
2021/01/30 11:29:57;;;;;;;7.47;4.70;;;;;;;;;;4985969;28;20046;-53
2021/01/30 11:32:24;;;;;;;6.90;4.20;;;;;;;;;;4987301;28;20038;-53
2021/01/30 11:34:54;;;;;;;8.00;3.92;;;;;;;;;;4988020;28;20037;-54
2021/01/30 11:37:20;;;;;;;5.88;3.72;;;;;;;;;;4986205;28;20030;-54
2021/01/30 11:39:46;;;;;;;6.65;3.97;;;;;;;;;;4988475;28;20049;-56
2021/01/30 11:42:12;;;;;;;5.50;3.45;;;;;;;;;;4982934;28;20038;-54
2021/01/30 11:44:38;;;;;;;5.22;3.53;;;;;;;;;;4985387;28;20031;-52
2021/01/30 11:47:04;;;;;;;5.65;3.05;;;;;;;;;;4987466;28;20030;-52
2021/01/30 11:49:30;;;;;;;6.28;3.15;;;;;;;;;;4987932;28;20030;-53
2021/01/30 11:51:56;;;;;;;4.25;3.17;;;;;;;;;;4986536;28;20096;-53
2021/01/30 11:54:22;;;;;;;5.28;2.90;;;;;;;;;;4986933;28;20031;-54
2021/01/30 11:56:48;;;;;;;3.42;2.47;;;;;;;;;;4981401;28;20019;-55
2021/01/30 11:59:14;;;;;;;4.25;2.53;;;;;;;;;;4982744;28;20053;-52
2021/01/30 12:01:40;;;;;;;3.67;2.40;;;;;;;;;;4987775;28;20116;-53
2021/01/30 12:04:07;;;;;;;2.97;2.15;;;;;;;;;;4983997;28;20101;-55
2021/01/30 12:06:33;;;;;;;4.50;2.45;;;;;;;;;;4981532;28;20181;-55
2021/01/30 12:08:59;;;;;;;2.85;1.83;;;;;;;;;;4979223;28;20054;-57
2021/01/30 12:11:25;;;;;;;3.88;1.90;;;;;;;;;;4987617;28;20068;-54
2021/01/30 12:13:51;;;;;;;2.53;1.75;;;;;;;;;;4986157;28;20034;-56
2021/01/30 12:16:18;;;;;;;3.13;1.90;;;;;;;;;;4988143;28;20073;-56
2021/01/30 12:18:44;;;;;;;1.98;1.55;;;;;;;;;;4980726;28;20034;-54
2021/01/30 12:21:10;;;;;;;2.58;1.52;;;;;;;;;;4982364;28;20052;-56
2021/01/30 12:23:36;;;;;;;3.97;1.50;;;;;;;;;;4987018;28;20534;-58
2021/01/30 12:26:02;;;;;;;1.73;1.08;;;;;;;;;;4982051;28;20536;-55
2021/01/30 12:28:29;;;;;;;1.92;1.15;;;;;;;;;;4985210;28;20886;-54
2021/01/30 12:30:55;;;;;;;1.45;1.10;;;;;;;;;;4985951;28;20105;-50
2021/01/30 12:33:21;;;;;;;2.28;1.05;;;;;;;;;;4984442;28;20018;-52
2021/01/30 12:35:47;;;;;;;2.35;1.42;;;;;;;;;;4977814;28;20105;-53
2021/01/30 12:38:14;;;;;;;2.22;0.90;;;;;;;;;;4985917;28;20818;-54
2021/01/30 12:40:42;;;;;;;3.83;1.10;;;;;;;;;;4983720;28;20474;-54
2021/01/30 12:43:08;;;;;;;2.15;1.20;;;;;;;;;;4982868;28;20026;-55
2021/01/30 12:45:34;;;;;;;2.55;1.08;;;;;;;;;;4975295;28;20031;-57
2021/01/30 12:48:01;;;;;;;2.25;1.52;;;;;;;;;;4985745;28;20030;-54
2021/01/30 12:50:28;;;;;;;2.45;1.55;;;;;;;;;;4985954;28;20026;-54
2021/01/30 12:52:54;;;;;;;2.65;1.40;;;;;;;;;;4986576;28;20026;-54
2021/01/30 12:55:20;;;;;;;2.17;1.42;;;;;;;;;;4985906;28;20731;-55
2021/01/30 12:57:47;;;;;;;3.42;1.90;;;;;;;;;;4986732;28;20040;-52
2021/01/30 13:00:14;;;;;;;2.88;1.65;;;;;;;;;;4985474;28;20039;-56
2021/01/30 13:02:41;;;;;;;3.38;1.60;;;;;;;;;;4985114;28;20578;-52
2021/01/30 13:05:08;;;;;;;10.00;6.35;;;;;;;;;;4985097;28;20026;-54
2021/01/30 13:07:35;;;;;;;3.50;1.83;;;;;;;;;;4982471;28;20092;-53
2021/01/30 13:10:01;;;;;;;2.90;1.65;;;;;;;;;;4986172;28;20113;-56
2021/01/30 13:12:26;;;;;;;2.45;1.20;;;;;;;;;;4985896;28;20522;-57
2021/01/30 13:14:52;;;;;;;5.25;1.83;;;;;;;;;;4986061;28;20026;-52
2021/01/30 13:17:18;;;;;;;2.97;1.75;;;;;;;;;;4986906;28;20077;-53
2021/01/30 13:19:44;;;;;;;2.70;1.42;;;;;;;;;;4983355;28;20541;-52
2021/01/30 13:22:11;;;;;;;2.30;1.60;;;;;;;;;;4985290;28;20031;-53
2021/01/30 13:24:37;;;;;;;3.55;2.08;;;;;;;;;;4985434;28;20046;-50
2021/01/30 13:27:04;;;;;;;3.03;1.83;;;;;;;;;;4983747;28;20041;-54
2021/01/30 13:29:31;;;;;;;2.85;1.83;;;;;;;;;;4985927;28;20796;-57
2021/01/30 13:31:57;;;;;;;2.15;1.50;;;;;;;;;;4977354;28;20027;-52
2021/01/30 13:34:23;;;;;;;3.13;2.00;;;;;;;;;;4986062;28;20033;-51
2021/01/30 13:36:52;;;;;;;3.00;1.67;;;;;;;;;;4986263;28;20030;-57
2021/01/30 13:39:19;;;;;;;2.72;1.55;;;;;;;;;;4984589;28;20566;-54
2021/01/30 13:41:45;;;;;;;2.42;1.58;;;;;;;;;;4985720;28;20035;-53
2021/01/30 13:44:11;;;;;;;3.53;1.60;;;;;;;;;;4990118;28;20046;-52
2021/01/30 13:46:37;;;;;;;2.55;1.60;;;;;;;;;;4981156;28;20031;-53
2021/01/30 13:49:03;;;;;;;2.63;1.25;;;;;;;;;;4990172;28;20107;-52
2021/01/30 13:51:29;;;;;;;3.15;1.63;;;;;;;;;;4987176;28;20720;-53
2021/01/30 13:53:55;;;;;;;2.00;1.48;;;;;;;;;;4972663;28;20018;-54
2021/01/30 13:56:21;;;;;;;2.28;1.30;;;;;;;;;;4981246;28;20022;-56
2021/01/30 13:58:47;;;;;;;3.20;1.55;;;;;;;;;;4988356;28;20034;-49
2021/01/30 14:01:13;;;;;;;1.67;1.33;;;;;;;;;;4986951;28;20090;-55
2021/01/30 14:03:39;;;;;;;1.92;1.17;;;;;;;;;;4993138;28;20030;-53
2021/01/30 14:06:05;;;;;;;11.20;3.67;;;;;;;;;;4992017;28;20022;-55
2021/01/30 14:08:31;;;;;;;2.83;1.77;;;;;;;;;;4986627;28;20627;-53
2021/01/30 14:10:57;;;;;;;2.67;1.67;;;;;;;;;;4986324;28;20478;-53
2021/01/30 14:13:23;;;;;;;4.20;2.25;;;;;;;;;;4988232;28;20038;-56
2021/01/30 14:15:49;;;;;;;3.35;1.70;;;;;;;;;;4985572;28;20437;-51
2021/01/30 14:18:17;;;;;;;2.85;1.67;;;;;;;;;;4988457;28;20049;-48
2021/01/30 14:20:43;;;;;;;10.07;5.25;;;;;;;;;;4988997;28;20121;-52
2021/01/30 14:23:09;;;;;;;2.95;1.80;;;;;;;;;;4976911;28;20203;-51
2021/01/30 14:25:35;;;;;;;3.20;2.15;;;;;;;;;;4983149;28;20030;-55
2021/01/30 14:28:01;;;;;;;2.90;1.80;;;;;;;;;;4986080;28;20033;-53
2021/01/30 14:30:27;;;;;;;3.72;1.98;;;;;;;;;;4989620;28;20096;-55
2021/01/30 14:32:53;;;;;;;2.78;1.75;;;;;;;;;;4990045;28;20026;-56
2021/01/30 14:35:19;;;;;;;4.35;1.83;;;;;;;;;;4989193;28;20038;-54
2021/01/30 14:37:45;;;;;;;3.10;1.90;;;;;;;;;;4986585;28;20037;-56
2021/01/30 14:40:12;;;;;;;3.55;1.80;;;;;;;;;;4981081;28;20030;-50
2021/01/30 14:42:38;;;;;;;2.75;1.70;;;;;;;;;;4984948;28;20026;-54
2021/01/30 14:45:06;;;;;;;3.22;1.92;;;;;;;;;;4983630;28;20128;-53